createdAt,value
2019-01-19T00:01:54.132Z,10.93
2019-01-19T00:04:52.028Z,10.03
2019-01-19T00:07:45.379Z,11.17
2019-01-19T00:10:58.274Z,10.67
2019-01-19T00:13:54.197Z,10.27
2019-01-19T00:16:59.577Z,9.70
2019-01-19T00:20:07.139Z,11.60
2019-01-19T00:23:16.151Z,10.07
2019-01-19T00:26:37.421Z,9.70
2019-01-19T00:29:15.329Z,9.07
2019-01-19T00:32:16.990Z,8.60
2019-01-19T00:35:21.227Z,7.87
2019-01-19T00:38:27.985Z,9.03
2019-01-19T00:41:31.501Z,9.00
2019-01-19T00:44:28.917Z,9.23
2019-01-19T00:47:18.937Z,8.67
2019-01-19T00:50:10.143Z,9.40
2019-01-19T00:52:43.801Z,8.80
2019-01-19T00:55:36.948Z,8.60
2019-01-19T00:59:02.084Z,8.67
2019-01-19T01:02:17.218Z,8.80
2019-01-19T01:05:00.749Z,8.90
2019-01-19T01:08:26.398Z,7.53
2019-01-19T01:11:14.258Z,8.33
2019-01-19T01:14:17.521Z,8.97
2019-01-19T01:17:44.470Z,7.97
2019-01-19T01:20:31.746Z,9.23
2019-01-19T01:23:22.384Z,7.70
2019-01-19T01:26:35.285Z,7.83
2019-01-19T01:29:27.040Z,7.37
2019-01-19T01:32:28.234Z,8.33
2019-01-19T01:35:36.145Z,9.70
2019-01-19T01:38:16.398Z,7.63
2019-01-19T01:41:20.683Z,8.43
2019-01-19T01:44:26.477Z,8.97
2019-01-19T01:47:36.771Z,8.50
2019-01-19T01:50:14.389Z,9.10
2019-01-19T01:53:19.664Z,9.50
2019-01-19T01:55:55.965Z,8.87
2019-01-19T01:58:53.186Z,9.73
2019-01-19T02:01:32.110Z,9.83
2019-01-19T02:04:30.241Z,9.10
2019-01-19T02:07:34.560Z,9.00
2019-01-19T02:11:12.104Z,8.67
2019-01-19T02:14:02.454Z,8.97
2019-01-19T02:17:07.296Z,9.70
2019-01-19T02:20:03.345Z,8.43
2019-01-19T02:23:09.230Z,9.73
2019-01-19T02:26:14.145Z,9.50
2019-01-19T02:29:33.166Z,10.00
2019-01-19T02:32:18.709Z,9.67
2019-01-19T02:35:17.339Z,9.80
2019-01-19T02:38:23.814Z,10.13
2019-01-19T02:41:41.743Z,11.20
2019-01-19T02:44:45.821Z,10.17
2019-01-19T02:47:35.985Z,10.83
2019-01-19T02:50:24.588Z,11.37
2019-01-19T02:53:44.349Z,10.73
2019-01-19T02:57:03.780Z,11.63
2019-01-19T02:59:52.470Z,10.47
2019-01-19T03:03:05.970Z,12.13
2019-01-19T03:06:34.329Z,11.93
2019-01-19T03:09:22.750Z,11.70
2019-01-19T03:12:54.389Z,11.73
2019-01-19T03:15:47.997Z,11.27
2019-01-19T03:18:52.739Z,12.17
2019-01-19T03:22:04.074Z,12.50
2019-01-19T03:25:15.446Z,12.77
2019-01-19T03:28:04.411Z,13.13
2019-01-19T03:31:19.803Z,12.67
2019-01-19T03:34:18.538Z,13.77
2019-01-19T03:37:19.342Z,12.97
2019-01-19T03:39:59.414Z,14.67
2019-01-19T03:42:56.405Z,13.00
2019-01-19T03:46:00.209Z,14.10
2019-01-19T03:49:13.109Z,13.23
2019-01-19T03:52:20.265Z,13.53
2019-01-19T03:55:13.717Z,12.13
2019-01-19T03:58:08.186Z,14.77
2019-01-19T04:01:05.215Z,15.43
2019-01-19T04:03:53.922Z,14.47
2019-01-19T04:07:04.182Z,15.47
2019-01-19T04:10:04.172Z,15.50
2019-01-19T04:13:02.002Z,15.63
2019-01-19T04:16:36.394Z,14.63
2019-01-19T04:19:36.718Z,16.30
2019-01-19T04:22:39.998Z,15.13
2019-01-19T04:25:17.738Z,15.70
2019-01-19T04:27:46.646Z,16.60
2019-01-19T04:30:15.644Z,15.63
2019-01-19T04:32:44.546Z,14.83
2019-01-19T04:35:13.529Z,14.90
2019-01-19T04:37:42.430Z,16.17
2019-01-19T04:40:12.885Z,15.63
2019-01-19T04:42:43.574Z,15.50
2019-01-19T04:45:13.018Z,15.80
2019-01-19T04:47:41.929Z,16.20
2019-01-19T04:50:12.502Z,15.70
2019-01-19T04:52:41.474Z,17.27
2019-01-19T04:55:10.459Z,16.60
2019-01-19T04:57:39.370Z,16.43
2019-01-19T05:00:18.840Z,17.60
2019-01-19T05:02:47.712Z,16.07
2019-01-19T05:05:16.746Z,17.83
2019-01-19T05:07:45.755Z,16.90
2019-01-19T05:10:14.782Z,17.37
2019-01-19T05:12:43.792Z,18.07
2019-01-19T05:15:15.717Z,17.40
2019-01-19T05:17:45.312Z,17.57
2019-01-19T05:20:14.507Z,16.03
2019-01-19T05:22:43.506Z,17.83
2019-01-19T05:25:12.718Z,16.97
2019-01-19T05:27:41.569Z,18.60
2019-01-19T05:30:13.956Z,16.37
2019-01-19T05:32:43.330Z,18.60
2019-01-19T05:35:12.480Z,17.13
2019-01-19T05:37:41.566Z,17.60
2019-01-19T05:40:11.282Z,17.23
2019-01-19T05:42:40.449Z,18.87
2019-01-19T05:45:11.200Z,17.23
2019-01-19T05:47:40.043Z,18.60
2019-01-19T05:50:12.769Z,17.30
2019-01-19T05:52:41.758Z,19.70
2019-01-19T05:55:10.838Z,18.60
2019-01-19T05:57:39.754Z,19.60
2019-01-19T06:00:12.943Z,18.80
2019-01-19T06:02:41.854Z,19.07
2019-01-19T06:05:11.085Z,17.23
2019-01-19T06:07:41.565Z,19.93
2019-01-19T06:10:13.313Z,19.03
2019-01-19T06:12:42.229Z,19.70
2019-01-19T06:15:12.934Z,19.90
2019-01-19T06:17:42.279Z,19.43
2019-01-19T06:20:13.070Z,20.13
2019-01-19T06:22:41.993Z,19.63
2019-01-19T06:25:11.984Z,17.30
2019-01-19T06:27:40.892Z,18.70
2019-01-19T06:30:13.561Z,17.10
2019-01-19T06:32:42.397Z,19.53
2019-01-19T06:35:11.662Z,17.50
2019-01-19T06:37:40.645Z,18.60
2019-01-19T06:40:10.642Z,18.30
2019-01-19T06:42:39.590Z,16.90
2019-01-19T06:45:12.361Z,18.40
2019-01-19T06:47:41.205Z,18.63
2019-01-19T06:50:12.237Z,17.83
2019-01-19T06:52:41.277Z,17.47
2019-01-19T06:55:11.462Z,17.57
2019-01-19T06:57:40.289Z,17.23
2019-01-19T07:00:11.849Z,17.93
2019-01-19T07:02:40.753Z,19.17
2019-01-19T07:05:09.849Z,18.47
2019-01-19T07:07:38.762Z,16.83
2019-01-19T07:10:11.765Z,17.50
2019-01-19T07:12:41.013Z,20.83
2019-01-19T07:15:10.983Z,31.37
2019-01-19T07:17:39.894Z,26.43
2019-01-19T07:20:12.030Z,26.97
2019-01-19T07:22:41.013Z,21.03
2019-01-19T07:25:10.061Z,21.00
2019-01-19T07:27:38.899Z,29.30
2019-01-19T07:30:10.861Z,26.20
2019-01-19T07:32:39.757Z,22.50
2019-01-19T07:35:10.689Z,21.63
2019-01-19T07:37:39.680Z,20.60
2019-01-19T07:40:10.617Z,17.70
2019-01-19T07:42:40.583Z,19.60
2019-01-19T07:45:10.045Z,20.23
2019-01-19T07:47:39.417Z,19.10
2019-01-19T07:50:10.681Z,17.57
2019-01-19T07:52:39.751Z,18.57
2019-01-19T07:55:10.309Z,16.20
2019-01-19T07:57:39.214Z,20.00
2019-01-19T08:00:12.702Z,19.73
2019-01-19T08:02:41.945Z,18.87
2019-01-19T08:05:11.246Z,18.93
2019-01-19T08:07:40.146Z,18.87
2019-01-19T08:10:10.849Z,18.40
2019-01-19T08:12:39.958Z,18.47
2019-01-19T08:15:11.880Z,19.30
2019-01-19T08:17:41.193Z,18.67
2019-01-19T08:20:11.072Z,18.87
2019-01-19T08:22:40.317Z,19.63
2019-01-19T08:25:09.745Z,18.07
2019-01-19T08:27:39.281Z,19.40
2019-01-19T08:30:14.829Z,18.93
2019-01-19T08:32:44.021Z,16.93
2019-01-19T08:35:15.547Z,18.07
2019-01-19T08:37:44.614Z,17.47
2019-01-19T08:40:16.617Z,17.07
2019-01-19T08:42:47.198Z,18.63
2019-01-19T08:45:17.182Z,18.53
2019-01-19T08:47:46.026Z,18.83
2019-01-19T08:50:15.379Z,18.80
2019-01-19T08:52:44.429Z,18.10
2019-01-19T08:55:13.625Z,19.83
2019-01-19T08:57:42.629Z,19.07
2019-01-19T09:00:14.777Z,18.30
2019-01-19T09:02:43.894Z,18.03
2019-01-19T09:05:13.084Z,20.10
2019-01-19T09:07:42.133Z,18.57
2019-01-19T09:10:12.955Z,17.63
2019-01-19T09:12:41.976Z,19.43
2019-01-19T09:15:13.686Z,18.53
2019-01-19T09:17:42.813Z,19.23
2019-01-19T09:20:13.285Z,17.40
2019-01-19T09:22:42.195Z,17.97
2019-01-19T09:25:13.197Z,18.47
2019-01-19T09:27:42.803Z,17.23
2019-01-19T09:30:17.209Z,19.63
2019-01-19T09:32:46.737Z,17.40
2019-01-19T09:35:16.218Z,18.27
2019-01-19T09:37:46.845Z,16.83
2019-01-19T09:40:16.392Z,15.53
2019-01-19T09:42:45.743Z,14.77
2019-01-19T09:45:15.585Z,14.27
2019-01-19T09:47:44.981Z,13.17
2019-01-19T09:50:14.990Z,18.37
2019-01-19T09:52:47.882Z,15.47
2019-01-19T09:55:16.841Z,15.67
2019-01-19T09:57:45.833Z,17.07
2019-01-19T10:00:16.447Z,15.37
2019-01-19T10:02:45.493Z,16.23
2019-01-19T10:05:17.301Z,15.47
2019-01-19T10:07:48.635Z,14.67
2019-01-19T10:10:17.366Z,15.53
2019-01-19T10:12:46.354Z,14.73
2019-01-19T10:15:16.142Z,16.77
2019-01-19T10:17:45.242Z,14.47
2019-01-19T10:20:19.656Z,13.73
2019-01-19T10:22:48.644Z,13.03
2019-01-19T10:25:17.800Z,12.97
2019-01-19T10:27:46.970Z,12.43
2019-01-19T10:30:18.279Z,12.43
2019-01-19T10:32:47.282Z,14.10
2019-01-19T10:35:16.336Z,14.50
2019-01-19T10:37:45.342Z,14.17
2019-01-19T10:40:14.786Z,14.03
2019-01-19T10:42:43.735Z,14.20
2019-01-19T10:45:17.965Z,14.57
2019-01-19T10:47:47.189Z,13.93
2019-01-19T10:50:17.008Z,15.33
2019-01-19T10:52:46.265Z,15.40
2019-01-19T10:55:16.973Z,15.10
2019-01-19T10:57:45.958Z,14.37
2019-01-19T11:00:17.898Z,14.53
2019-01-19T11:02:47.557Z,12.83
2019-01-19T11:05:16.990Z,14.17
2019-01-19T11:07:48.018Z,14.57
2019-01-19T11:10:21.985Z,13.90
2019-01-19T11:12:51.057Z,15.10
2019-01-19T11:15:20.371Z,14.30
2019-01-19T11:17:49.260Z,14.50
2019-01-19T11:20:20.445Z,14.20
2019-01-19T11:22:49.337Z,15.33
2019-01-19T11:25:18.427Z,15.10
2019-01-19T11:27:47.314Z,15.67
2019-01-19T11:30:21.362Z,15.47
2019-01-19T11:32:50.325Z,14.70
2019-01-19T11:35:19.453Z,14.57
2019-01-19T11:37:48.413Z,12.90
2019-01-19T11:40:22.481Z,13.77
2019-01-19T11:42:51.830Z,12.27
2019-01-19T11:45:21.802Z,13.40
2019-01-19T11:47:50.997Z,13.93
2019-01-19T11:50:20.277Z,11.63
2019-01-19T11:52:49.198Z,11.40
2019-01-19T11:55:21.589Z,12.63
2019-01-19T11:57:53.029Z,13.47
2019-01-19T12:00:27.461Z,11.97
2019-01-19T12:02:56.360Z,13.93
2019-01-19T12:05:25.354Z,11.57
2019-01-19T12:07:54.330Z,12.43
2019-01-19T12:10:25.749Z,12.17
2019-01-19T12:12:54.764Z,13.70
2019-01-19T12:15:24.043Z,14.37
2019-01-19T12:17:53.067Z,14.70
2019-01-19T12:20:45.497Z,13.10
2019-01-19T12:23:14.321Z,13.40
2019-01-19T12:25:43.233Z,13.43
2019-01-19T12:28:12.245Z,13.47
2019-01-19T12:30:41.258Z,12.70
2019-01-19T12:33:10.322Z,12.10
2019-01-19T12:35:39.322Z,14.67
2019-01-19T12:38:08.759Z,12.00
2019-01-19T12:40:39.388Z,13.50
2019-01-19T12:43:20.171Z,13.63
2019-01-19T12:45:55.694Z,15.33
2019-01-19T12:48:30.579Z,12.87
2019-01-19T12:51:02.777Z,13.00
2019-01-19T12:53:33.621Z,13.23
2019-01-19T12:56:22.197Z,11.80
2019-01-19T12:58:52.145Z,13.27
2019-01-19T13:01:21.880Z,13.67
2019-01-19T13:03:51.196Z,13.53
2019-01-19T13:06:35.109Z,14.03
2019-01-19T13:09:12.642Z,14.07
2019-01-19T13:12:11.397Z,13.57
2019-01-19T13:14:47.746Z,16.23
2019-01-19T13:18:10.294Z,14.90
2019-01-19T13:21:19.610Z,15.53
2019-01-19T13:24:34.085Z,13.33
2019-01-19T13:27:44.786Z,13.30
2019-01-19T13:30:48.919Z,11.83
2019-01-19T13:33:49.468Z,14.43
2019-01-19T13:37:00.406Z,11.80
2019-01-19T13:40:00.729Z,12.03
2019-01-19T13:43:14.511Z,13.23
2019-01-19T13:45:53.239Z,12.43
2019-01-19T13:48:38.804Z,12.63
2019-01-19T13:51:44.419Z,10.37
2019-01-19T13:54:59.192Z,12.00
2019-01-19T13:57:56.541Z,13.47
2019-01-19T14:00:56.394Z,15.17
2019-01-19T14:03:56.938Z,13.03
2019-01-19T14:07:15.058Z,13.30
2019-01-19T14:10:20.212Z,13.67
2019-01-19T14:13:18.433Z,12.67
2019-01-19T14:16:34.445Z,15.03
2019-01-19T14:19:25.541Z,13.00
2019-01-19T14:22:48.107Z,15.03
2019-01-19T14:26:25.070Z,12.80
2019-01-19T14:29:35.828Z,14.43
2019-01-19T14:32:51.255Z,14.23
2019-01-19T14:35:37.743Z,14.33
2019-01-19T14:38:56.872Z,13.90
2019-01-19T14:42:11.927Z,13.63
2019-01-19T14:45:02.363Z,14.67
2019-01-19T14:47:42.121Z,14.77
2019-01-19T14:51:01.768Z,14.10
2019-01-19T14:54:14.348Z,14.07
2019-01-19T14:57:15.743Z,13.90
2019-01-19T15:00:35.388Z,14.30
2019-01-19T15:03:20.631Z,13.37
2019-01-19T15:06:16.225Z,14.50
2019-01-19T15:09:14.149Z,13.37
2019-01-19T15:12:19.981Z,14.20
2019-01-19T15:15:35.627Z,13.70
2019-01-19T15:18:33.334Z,12.33
2019-01-19T15:21:40.472Z,12.97
2019-01-19T15:24:29.133Z,14.10
2019-01-19T15:27:38.213Z,15.43
2019-01-19T15:30:44.046Z,14.00
2019-01-19T15:33:53.269Z,12.97
2019-01-19T15:36:55.012Z,12.80
2019-01-19T15:39:52.449Z,13.93
2019-01-19T15:43:01.510Z,15.43
2019-01-19T15:45:55.586Z,15.40
2019-01-19T15:49:17.025Z,16.47
2019-01-19T15:52:13.130Z,14.57
2019-01-19T15:55:20.569Z,15.97
2019-01-19T15:58:15.469Z,14.33
2019-01-19T16:01:13.448Z,15.50
2019-01-19T16:04:36.617Z,15.13
2019-01-19T16:07:42.066Z,16.07
2019-01-19T16:10:52.640Z,16.30
2019-01-19T16:14:11.475Z,16.60
2019-01-19T16:17:40.420Z,18.50
2019-01-19T16:21:01.839Z,17.00
2019-01-19T16:23:54.665Z,17.67
2019-01-19T16:27:02.365Z,17.90
2019-01-19T16:30:00.316Z,19.73
2019-01-19T16:33:10.708Z,20.67
2019-01-19T16:36:19.192Z,20.13
2019-01-19T16:39:07.763Z,19.40
2019-01-19T16:41:52.676Z,17.87
2019-01-19T16:45:13.823Z,18.30
2019-01-19T16:48:17.648Z,18.23
2019-01-19T16:51:29.160Z,17.67
2019-01-19T16:54:07.106Z,18.27
2019-01-19T16:57:08.538Z,19.90
2019-01-19T17:03:14.011Z,20.93
2019-01-19T17:06:21.616Z,21.00
2019-01-19T17:09:35.045Z,20.87
2019-01-19T17:12:44.432Z,19.37
2019-01-19T17:16:00.879Z,19.90
2019-01-19T17:19:04.889Z,20.23
2019-01-19T17:22:15.095Z,21.33
2019-01-19T17:25:16.156Z,21.03
2019-01-19T17:27:52.347Z,21.57
2019-01-19T17:30:55.604Z,20.97
2019-01-19T17:34:13.901Z,25.37
2019-01-19T17:37:11.837Z,25.23
2019-01-19T17:40:30.417Z,22.63
2019-01-19T17:43:37.710Z,18.70
2019-01-19T17:46:49.985Z,22.17
2019-01-19T17:49:54.783Z,20.07
2019-01-19T17:53:04.149Z,20.80
2019-01-19T17:56:06.202Z,20.60
2019-01-19T17:59:02.212Z,21.50
2019-01-19T18:02:08.344Z,21.83
2019-01-19T18:05:16.641Z,19.33
2019-01-19T18:08:33.465Z,21.07
2019-01-19T18:11:41.095Z,19.57
2019-01-19T18:14:53.554Z,20.00
2019-01-19T18:17:47.460Z,24.37
2019-01-19T18:20:53.884Z,23.33
2019-01-19T18:23:43.944Z,21.20
2019-01-19T18:26:38.796Z,20.63
2019-01-19T18:29:45.244Z,18.17
2019-01-19T18:32:41.758Z,21.63
2019-01-19T18:35:36.522Z,20.70
2019-01-19T18:38:37.113Z,24.57
2019-01-19T18:41:18.963Z,23.17
2019-01-19T18:44:08.758Z,21.67
2019-01-19T18:47:25.201Z,22.20
2019-01-19T18:50:40.423Z,22.40
2019-01-19T18:53:51.726Z,22.30
2019-01-19T18:57:16.670Z,21.20
2019-01-19T19:00:14.066Z,20.77
2019-01-19T19:02:52.098Z,17.47
2019-01-19T19:05:48.746Z,20.03
2019-01-19T19:09:13.278Z,21.50
2019-01-19T19:12:16.213Z,21.97
2019-01-19T19:15:16.370Z,23.77
2019-01-19T19:18:22.950Z,27.33
2019-01-19T19:21:39.264Z,28.30
2019-01-19T19:24:48.260Z,30.80
2019-01-19T19:28:07.319Z,29.07
2019-01-19T19:31:24.892Z,24.23
2019-01-19T19:34:22.965Z,23.30
2019-01-19T19:37:16.637Z,24.43
2019-01-19T19:40:35.965Z,24.97
2019-01-19T19:43:42.526Z,22.77
2019-01-19T19:46:36.571Z,23.77
2019-01-19T19:49:38.344Z,24.00
2019-01-19T19:52:07.757Z,24.67
2019-01-19T19:54:38.775Z,23.00
2019-01-19T19:57:09.788Z,24.13
2019-01-19T19:59:39.367Z,28.03
2019-01-19T20:02:10.345Z,26.80
2019-01-19T20:04:41.060Z,22.30
2019-01-19T20:07:10.742Z,26.80
2019-01-19T20:09:40.146Z,23.50
2019-01-19T20:12:10.977Z,23.07
2019-01-19T20:14:40.450Z,24.57
2019-01-19T20:17:13.971Z,22.47
2019-01-19T20:19:44.452Z,25.00
2019-01-19T20:22:13.985Z,24.53
2019-01-19T20:24:43.417Z,23.93
2019-01-19T20:27:12.954Z,24.90
2019-01-19T20:29:42.400Z,23.67
2019-01-19T20:32:11.779Z,24.10
2019-01-19T20:34:41.261Z,21.23
2019-01-19T20:37:10.592Z,24.03
2019-01-19T20:39:40.168Z,22.43
2019-01-19T20:42:09.587Z,23.90
2019-01-19T20:45:04.199Z,21.30
2019-01-19T20:47:33.545Z,22.87
2019-01-19T20:50:03.056Z,21.17
2019-01-19T20:52:32.786Z,22.53
2019-01-19T20:55:02.102Z,23.93
2019-01-19T20:57:31.327Z,24.70
2019-01-19T21:00:00.584Z,24.33
2019-01-19T21:02:30.006Z,23.33
2019-01-19T21:04:59.036Z,23.20
2019-01-19T21:07:28.148Z,24.83
2019-01-19T21:09:57.053Z,23.77
2019-01-19T21:12:25.882Z,24.20
2019-01-19T21:14:54.790Z,23.97
2019-01-19T21:17:23.729Z,24.67
2019-01-19T21:19:52.645Z,22.50
2019-01-19T21:22:21.561Z,21.37
2019-01-19T21:24:50.489Z,21.40
2019-01-19T21:27:19.402Z,21.87
2019-01-19T21:29:48.381Z,22.63
2019-01-19T21:32:17.685Z,22.23
2019-01-19T21:34:46.673Z,21.33
2019-01-19T21:37:15.593Z,21.07
2019-01-19T21:39:44.430Z,21.27
2019-01-19T21:42:13.257Z,20.83
2019-01-19T21:44:42.109Z,21.70
2019-01-19T21:47:10.947Z,23.63
2019-01-19T21:49:39.791Z,26.90
2019-01-19T21:52:08.703Z,24.27
2019-01-19T21:54:37.601Z,22.00
2019-01-19T21:57:06.580Z,21.50
2019-01-19T21:59:35.861Z,22.10
2019-01-19T22:02:05.122Z,21.53
2019-01-19T22:04:34.066Z,20.50
2019-01-19T22:07:03.081Z,21.80
2019-01-19T22:09:32.297Z,21.90
2019-01-19T22:12:02.245Z,22.73
2019-01-19T22:14:31.167Z,23.10
2019-01-19T22:17:00.429Z,23.13
2019-01-19T22:19:29.393Z,26.77
2019-01-19T22:21:58.261Z,28.63
2019-01-19T22:24:27.189Z,30.43
2019-01-19T22:26:56.541Z,31.57
2019-01-19T22:29:25.625Z,33.27
2019-01-19T22:31:54.454Z,34.37
2019-01-19T22:34:23.304Z,34.77
2019-01-19T22:36:52.402Z,36.17
2019-01-19T22:39:21.254Z,36.60
2019-01-19T22:41:50.165Z,34.83
2019-01-19T22:44:19.101Z,36.23
2019-01-19T22:46:48.025Z,38.60
2019-01-19T22:49:16.970Z,39.03
2019-01-19T22:52:05.006Z,39.80
2019-01-19T22:54:33.843Z,39.70
2019-01-19T22:57:02.807Z,40.83
2019-01-19T22:59:31.721Z,37.90
2019-01-19T23:02:08.321Z,39.37
2019-01-19T23:04:37.298Z,34.27
2019-01-19T23:07:06.140Z,37.87
2019-01-19T23:09:35.109Z,38.50
2019-01-19T23:12:04.191Z,36.10
2019-01-19T23:14:33.943Z,37.03
2019-01-19T23:17:02.789Z,37.07
2019-01-19T23:19:31.624Z,35.97
2019-01-19T23:22:00.559Z,37.60
2019-01-19T23:24:29.399Z,34.23
2019-01-19T23:27:06.142Z,36.07
2019-01-19T23:29:35.034Z,34.63
2019-01-19T23:32:04.496Z,34.60
2019-01-19T23:34:33.398Z,32.47
2019-01-19T23:37:02.329Z,30.50
2019-01-19T23:39:31.161Z,29.70
2019-01-19T23:42:00.070Z,33.00
2019-01-19T23:44:28.981Z,32.00
2019-01-19T23:46:57.885Z,27.87
2019-01-19T23:49:26.718Z,29.33
2019-01-19T23:51:55.621Z,28.43
2019-01-19T23:54:24.595Z,29.63
2019-01-19T23:56:53.433Z,30.33
2019-01-19T23:59:22.257Z,27.77
